createdAt,value
2018-09-27T12:47:04.178Z,19.60
2018-09-27T12:49:38.179Z,18.90
2018-09-27T12:52:18.801Z,18.90
2018-09-27T12:54:53.581Z,18.50
2018-09-27T12:57:27.902Z,18.10
2018-09-27T13:00:00.009Z,18.20
2018-09-27T13:02:32.150Z,18.00
2018-09-27T13:05:24.235Z,17.80
2018-09-27T13:08:08.411Z,17.10
2018-09-27T13:10:40.159Z,17.50
2018-09-27T13:13:17.728Z,17.10
2018-09-27T13:15:52.785Z,17.50
2018-09-27T13:18:32.322Z,17.60
2018-09-27T13:21:12.850Z,17.60
2018-09-27T13:23:46.143Z,17.80
2018-09-27T13:26:23.127Z,17.90
2018-09-27T13:29:00.712Z,17.90
2018-09-27T13:31:34.806Z,18.20
2018-09-27T13:34:12.891Z,18.50
2018-09-27T13:36:47.184Z,18.70
2018-09-27T13:39:22.988Z,18.80
2018-09-27T13:41:55.137Z,19.00
2018-09-27T13:44:31.786Z,19.20
2018-09-27T13:47:04.881Z,19.60
2018-09-27T13:49:39.436Z,19.90
2018-09-27T13:52:13.833Z,20.10
2018-09-27T13:54:47.407Z,20.20
2018-09-27T13:57:20.129Z,20.30
2018-09-27T13:59:54.194Z,20.40
2018-09-27T14:02:31.289Z,20.50
2018-09-27T14:05:10.844Z,20.40
2018-09-27T14:07:46.307Z,20.60
2018-09-27T14:10:19.487Z,20.70
2018-09-27T14:12:53.652Z,21.00
2018-09-27T14:15:28.495Z,21.30
2018-09-27T14:18:03.683Z,21.60
2018-09-27T14:20:39.176Z,22.00
2018-09-27T14:23:14.649Z,21.20
2018-09-27T14:25:49.293Z,21.00
2018-09-27T14:28:25.914Z,20.70
2018-09-27T14:31:03.494Z,20.30
2018-09-27T14:33:37.829Z,20.40
2018-09-27T14:36:11.199Z,19.90
2018-09-27T14:38:42.500Z,19.60
2018-09-27T14:41:13.858Z,19.70
2018-09-27T14:43:45.381Z,19.80
2018-09-27T14:46:16.682Z,19.40
2018-09-27T14:48:47.949Z,19.40
2018-09-27T14:51:20.181Z,19.40
2018-09-27T14:53:51.414Z,19.50
2018-09-27T14:56:22.683Z,19.40
2018-09-27T14:58:54.165Z,19.30
2018-09-27T15:01:25.760Z,19.50
2018-09-27T15:03:57.334Z,19.60
2018-09-27T15:06:28.614Z,19.80
2018-09-27T15:09:00.055Z,19.70
2018-09-27T15:11:31.576Z,19.70
2018-09-27T15:14:02.879Z,19.80
2018-09-27T15:16:33.494Z,20.00
2018-09-27T15:19:04.232Z,20.20
2018-09-27T15:21:35.074Z,20.30
2018-09-27T15:24:06.636Z,20.40
2018-09-27T15:26:37.409Z,21.00
2018-09-27T15:29:08.084Z,20.60
2018-09-27T15:31:39.613Z,20.80
2018-09-27T15:34:10.375Z,20.90
2018-09-27T15:36:42.564Z,21.10
2018-09-27T15:39:13.184Z,21.20
2018-09-27T15:41:43.989Z,21.20
2018-09-27T15:44:14.768Z,21.40
2018-09-27T15:46:45.477Z,21.40
2018-09-27T15:49:16.553Z,21.40
2018-09-27T15:51:48.722Z,21.50
2018-09-27T15:54:19.321Z,21.60
2018-09-27T15:56:50.033Z,21.70
2018-09-27T15:59:21.070Z,21.90
2018-09-27T16:01:51.757Z,22.10
2018-09-27T16:04:22.684Z,22.10
2018-09-27T16:06:53.966Z,22.20
2018-09-27T16:09:25.963Z,22.90
2018-09-27T16:11:56.652Z,22.30
2018-09-27T16:14:27.204Z,22.40
2018-09-27T16:16:57.956Z,22.70
2018-09-27T16:19:28.769Z,22.70
2018-09-27T16:22:07.179Z,22.80
2018-09-27T16:24:38.141Z,22.80
2018-09-27T16:27:09.240Z,23.00
2018-09-27T16:29:40.372Z,23.00
2018-09-27T16:32:11.528Z,23.30
2018-09-27T16:34:43.507Z,23.20
2018-09-27T16:37:14.435Z,23.30
2018-09-27T16:39:45.304Z,23.40
2018-09-27T16:42:15.883Z,23.40
2018-09-27T16:44:46.803Z,23.50
2018-09-27T16:47:18.161Z,23.70
2018-09-27T16:49:48.847Z,23.90
2018-09-27T16:52:19.765Z,24.00
2018-09-27T16:54:50.516Z,24.40
2018-09-27T16:57:21.210Z,24.30
2018-09-27T16:59:52.017Z,24.60
2018-09-27T17:02:22.733Z,24.40
2018-09-27T17:04:53.617Z,24.70
2018-09-27T17:07:24.367Z,24.80
2018-09-27T17:09:55.354Z,25.10
2018-09-27T17:12:26.471Z,25.10
2018-09-27T17:14:57.071Z,25.20
2018-09-27T17:17:27.791Z,25.30
2018-09-27T17:20:01.607Z,25.50
2018-09-27T17:22:32.326Z,25.70
2018-09-27T17:25:03.177Z,25.80
2018-09-27T17:27:33.979Z,26.00
2018-09-27T17:30:05.533Z,26.20
2018-09-27T17:32:36.433Z,26.20
2018-09-27T17:35:07.718Z,26.70
2018-09-27T17:37:39.119Z,26.80
2018-09-27T17:40:09.981Z,26.90
2018-09-27T17:42:41.230Z,27.00
2018-09-27T17:45:12.046Z,27.20
2018-09-27T17:47:42.951Z,27.50
2018-09-27T17:50:13.773Z,27.60
2018-09-27T17:52:44.665Z,27.70
2018-09-27T17:55:15.580Z,27.90
2018-09-27T17:57:46.255Z,28.00
2018-09-27T18:00:17.439Z,28.30
2018-09-27T18:02:48.372Z,28.30
2018-09-27T18:05:19.588Z,28.50
2018-09-27T18:07:55.327Z,28.70
2018-09-27T18:10:26.117Z,28.70
2018-09-27T18:12:57.133Z,28.80
2018-09-27T18:15:28.261Z,29.10
2018-09-27T18:17:59.426Z,29.30
2018-09-27T18:20:30.161Z,29.70
2018-09-27T18:23:01.008Z,29.00
2018-09-27T18:25:31.765Z,29.80
2018-09-27T18:28:03.115Z,30.00
2018-09-27T18:30:33.913Z,30.10
2018-09-27T18:33:05.872Z,30.30
2018-09-27T18:35:36.610Z,30.60
2018-09-27T18:38:07.857Z,30.80
2018-09-27T18:40:38.835Z,31.10
2018-09-27T18:43:09.626Z,31.20
2018-09-27T18:45:40.615Z,31.30
2018-09-27T18:48:12.386Z,31.40
2018-09-27T18:50:43.475Z,31.60
2018-09-27T18:53:14.316Z,31.90
2018-09-27T18:55:45.185Z,32.10
2018-09-27T18:58:15.859Z,32.20
2018-09-27T19:00:46.673Z,32.50
2018-09-27T19:03:17.327Z,32.60
2018-09-27T19:05:48.633Z,32.90
2018-09-27T19:08:19.372Z,33.00
2018-09-27T19:10:50.294Z,33.10
2018-09-27T19:13:21.079Z,33.50
2018-09-27T19:15:54.363Z,33.40
2018-09-27T19:18:25.674Z,33.70
2018-09-27T19:20:56.636Z,33.70
2018-09-27T19:23:27.260Z,34.00
2018-09-27T19:25:57.880Z,34.70
2018-09-27T19:28:28.557Z,34.20
2018-09-27T19:30:59.298Z,34.40
2018-09-27T19:33:30.510Z,34.60
2018-09-27T19:36:01.385Z,34.90
2018-09-27T19:38:32.135Z,34.90
2018-09-27T19:41:03.066Z,35.10
2018-09-27T19:43:34.016Z,35.30
2018-09-27T19:46:04.713Z,35.50
2018-09-27T19:48:35.820Z,35.70
2018-09-27T19:51:07.764Z,35.80
2018-09-27T19:53:39.256Z,36.10
2018-09-27T19:56:10.608Z,36.30
2018-09-27T19:58:41.478Z,36.20
2018-09-27T20:01:12.173Z,36.60
2018-09-27T20:03:43.278Z,36.80
2018-09-27T20:06:14.430Z,36.90
2018-09-27T20:08:45.526Z,36.90
2018-09-27T20:11:16.390Z,36.90
2018-09-27T20:13:47.484Z,37.30
2018-09-27T20:16:18.372Z,37.50
2018-09-27T20:18:49.628Z,37.50
2018-09-27T20:21:20.959Z,37.70
2018-09-27T20:23:51.963Z,37.70
2018-09-27T20:26:22.661Z,37.80
2018-09-27T20:28:53.518Z,38.00
2018-09-27T20:31:24.499Z,38.10
2018-09-27T20:33:55.762Z,38.20
2018-09-27T20:36:27.259Z,38.10
2018-09-27T20:38:58.521Z,38.40
2018-09-27T20:41:29.279Z,38.70
2018-09-27T20:44:00.045Z,38.60
2018-09-27T20:46:31.168Z,38.70
2018-09-27T20:49:01.942Z,38.70
2018-09-27T20:51:32.953Z,39.10
2018-09-27T20:54:03.955Z,39.20
2018-09-27T20:56:34.857Z,39.20
2018-09-27T20:59:05.685Z,39.20
2018-09-27T21:01:36.268Z,39.40
2018-09-27T21:04:07.213Z,39.50
2018-09-27T21:06:38.576Z,39.70
2018-09-27T21:09:12.208Z,40.50
2018-09-27T21:11:43.227Z,39.90
2018-09-27T21:14:13.944Z,40.00
2018-09-27T21:16:45.023Z,40.00
2018-09-27T21:19:15.690Z,40.20
2018-09-27T21:21:46.276Z,40.30
2018-09-27T21:24:17.099Z,40.30
2018-09-27T21:26:47.736Z,40.30
2018-09-27T21:29:18.408Z,40.50
2018-09-27T21:31:49.300Z,40.70
2018-09-27T21:34:19.904Z,40.70
2018-09-27T21:36:50.945Z,40.70
2018-09-27T21:39:21.722Z,40.70
2018-09-27T21:41:52.457Z,41.00
2018-09-27T21:44:23.310Z,41.00
2018-09-27T21:46:54.144Z,41.10
2018-09-27T21:49:27.044Z,41.10
2018-09-27T21:51:58.070Z,41.20
2018-09-27T21:54:28.932Z,41.40
2018-09-27T21:56:59.696Z,41.50
2018-09-27T21:59:30.642Z,41.70
2018-09-27T22:02:01.582Z,41.70
2018-09-27T22:04:32.419Z,42.00
2018-09-27T22:07:03.728Z,42.20
2018-09-27T22:09:34.583Z,42.40
2018-09-27T22:12:05.493Z,42.40
2018-09-27T22:14:36.434Z,42.60
2018-09-27T22:17:07.877Z,42.80
2018-09-27T22:19:38.865Z,43.00
2018-09-27T22:22:09.590Z,43.20
2018-09-27T22:24:40.431Z,43.20
2018-09-27T22:27:11.428Z,43.30
2018-09-27T22:29:42.336Z,43.60
2018-09-27T22:32:13.046Z,43.60
2018-09-27T22:34:43.842Z,43.80
2018-09-27T22:37:15.051Z,44.00
2018-09-27T22:39:45.864Z,44.10
2018-09-27T22:42:16.799Z,44.20
2018-09-27T22:44:47.979Z,44.40
2018-09-27T22:47:18.849Z,44.10
2018-09-27T22:49:49.752Z,44.30
2018-09-27T22:52:20.428Z,44.60
2018-09-27T22:54:51.307Z,44.50
2018-09-27T22:57:22.356Z,44.40
2018-09-27T22:59:53.260Z,44.80
2018-09-27T23:02:23.960Z,45.10
2018-09-27T23:04:54.863Z,45.20
2018-09-27T23:07:25.978Z,45.50
2018-09-27T23:09:56.663Z,45.60
2018-09-27T23:12:27.593Z,45.50
2018-09-27T23:14:58.399Z,45.70
2018-09-27T23:17:29.152Z,45.90
2018-09-27T23:20:00.548Z,45.70
2018-09-27T23:22:31.533Z,45.80
2018-09-27T23:25:02.286Z,46.40
2018-09-27T23:27:33.083Z,45.80
2018-09-27T23:30:04.415Z,46.00
2018-09-27T23:32:35.453Z,46.40
2018-09-27T23:35:06.597Z,46.50
2018-09-27T23:37:37.547Z,46.50
2018-09-27T23:40:08.760Z,46.60
2018-09-27T23:42:39.489Z,46.70
2018-09-27T23:45:10.320Z,46.90
2018-09-27T23:47:41.202Z,46.70
2018-09-27T23:50:12.030Z,47.00
2018-09-27T23:52:42.684Z,47.30
2018-09-27T23:55:13.732Z,47.20
2018-09-27T23:57:45.428Z,47.40
